Time;durP1;ratioP1;P1;durP2;ratioP2;P2;SDS_P1;SDS_P2;PMS_P1;PMS_P2;Temp;Humidity;BMP_temperature;BMP_pressure;BME280_temperature;BME280_humidity;BME280_pressure;Samples;Min_cycle;Max_cycle;Signal;HPM_P1;HPM_P2
2022/01/03 00:01:59;;;;;;;1.90;1.70;;;3.30;84.30;;;;;;1872860;77;21108;-44
2022/01/03 00:04:28;;;;;;;3.05;1.70;;;3.30;84.20;;;;;;1872856;75;21083;-43
2022/01/03 00:06:59;;;;;;;2.05;1.80;;;3.40;84.30;;;;;;1872976;75;21162;-44
2022/01/03 00:09:28;;;;;;;1.85;1.60;;;3.40;84.00;;;;;;1872947;75;21026;-44
2022/01/03 00:11:58;;;;;;;2.42;1.85;;;3.40;83.30;;;;;;1872965;77;21033;-44
2022/01/03 00:14:29;;;;;;;3.72;1.80;;;3.40;83.70;;;;;;1872877;75;21026;-44
2022/01/03 00:16:58;;;;;;;7.05;1.82;;;3.30;84.00;;;;;;1872909;75;21061;-44
2022/01/03 00:19:27;;;;;;;2.02;1.60;;;3.40;83.90;;;;;;1872839;76;21026;-43
2022/01/03 00:21:59;;;;;;;2.15;1.77;;;3.30;84.10;;;;;;1872835;76;21096;-44
2022/01/03 00:24:34;;;;;;;3.20;2.12;;;3.30;84.10;;;;;;1872927;77;21037;-44
2022/01/03 00:27:06;;;;;;;2.20;1.90;;;3.30;84.50;;;;;;1873033;75;21069;-44
2022/01/03 00:29:44;;;;;;;3.52;2.17;;;3.40;84.70;;;;;;1872101;76;21104;-44
2022/01/03 00:32:14;;;;;;;4.30;2.40;;;3.40;84.80;;;;;;1871753;75;21037;-44
2022/01/03 00:34:45;;;;;;;4.12;2.27;;;3.40;84.80;;;;;;1872989;75;21041;-44
2022/01/03 00:37:16;;;;;;;3.08;2.05;;;3.40;84.90;;;;;;1872933;75;21041;-44
2022/01/03 00:39:47;;;;;;;1.75;1.60;;;3.50;85.10;;;;;;1872965;76;21101;-44
2022/01/03 00:42:16;;;;;;;3.58;2.35;;;3.50;85.10;;;;;;1872901;76;21073;-44
2022/01/03 00:44:48;;;;;;;5.83;2.40;;;3.50;85.10;;;;;;1872824;75;21072;-44
2022/01/03 00:47:17;;;;;;;2.77;2.25;;;3.50;84.90;;;;;;1873015;75;21006;-44
2022/01/03 00:49:47;;;;;;;3.10;2.27;;;3.40;85.10;;;;;;1872857;75;21042;-45
2022/01/03 00:52:17;;;;;;;3.05;1.90;;;3.40;85.30;;;;;;1873018;77;21065;-44
2022/01/03 00:54:46;;;;;;;4.70;2.70;;;3.50;85.50;;;;;;1872856;76;21091;-44
2022/01/03 00:57:19;;;;;;;3.47;2.42;;;3.50;85.20;;;;;;1872816;75;21064;-44
2022/01/03 00:59:51;;;;;;;2.83;2.08;;;3.50;85.50;;;;;;1872298;76;21037;-44
2022/01/03 01:02:21;;;;;;;3.80;2.37;;;3.50;85.60;;;;;;1871283;76;21099;-44
2022/01/03 01:04:53;;;;;;;3.10;2.17;;;3.50;84.90;;;;;;1872866;76;21092;-44
2022/01/03 01:07:25;;;;;;;3.27;2.50;;;3.40;85.00;;;;;;1872903;76;21045;-45
2022/01/03 01:09:54;;;;;;;3.95;2.50;;;3.40;85.50;;;;;;1872842;75;21108;-44
2022/01/03 01:12:23;;;;;;;4.72;2.87;;;3.40;85.80;;;;;;1873015;75;21041;-45
2022/01/03 01:14:53;;;;;;;3.98;2.55;;;3.40;86.10;;;;;;1873098;77;21030;-44
2022/01/03 01:17:24;;;;;;;3.27;2.22;;;3.40;86.50;;;;;;1885050;76;21064;-44
2022/01/03 01:19:56;;;;;;;3.30;3.00;;;3.40;85.70;;;;;;1891599;76;21557;-43
2022/01/03 01:22:26;;;;;;;4.03;2.70;;;3.40;85.90;;;;;;1891599;76;21565;-45
2022/01/03 01:27:48;;;;;;;5.35;2.72;;;3.40;85.90;;;;;;1891653;76;21060;-43
2022/01/03 01:30:20;;;;;;;3.08;2.77;;;3.40;86.00;;;;;;1891577;75;21498;-44
2022/01/03 01:33:04;;;;;;;2.85;2.50;;;3.40;85.80;;;;;;1891604;75;21040;-43
2022/01/03 01:35:57;;;;;;;6.75;3.42;;;3.30;85.50;;;;;;1891866;75;21110;-44
2022/01/03 01:38:33;;;;;;;3.55;2.87;;;3.20;86.00;;;;;;1891093;75;21095;-44
2022/01/03 01:41:06;;;;;;;4.92;3.40;;;3.20;85.50;;;;;;1891566;76;21056;-43
2022/01/03 01:43:45;;;;;;;5.58;3.37;;;3.20;86.00;;;;;;1891555;76;21027;-43
2022/01/03 01:46:21;;;;;;;7.05;3.42;;;3.10;86.20;;;;;;1891529;75;21074;-44
2022/01/03 01:48:53;;;;;;;5.85;3.80;;;3.10;86.30;;;;;;1891129;75;21564;-43
2022/01/03 01:51:26;;;;;;;5.37;3.65;;;3.10;86.70;;;;;;1891656;76;21098;-43
2022/01/03 01:53:57;;;;;;;7.70;3.80;;;3.10;86.70;;;;;;1891416;75;21059;-43
2022/01/03 01:56:47;;;;;;;4.80;3.40;;;3.20;86.50;;;;;;1891283;75;21051;-43
2022/01/03 01:59:20;;;;;;;5.75;3.08;;;3.20;86.50;;;;;;1891719;76;21095;-44
2022/01/03 02:02:11;;;;;;;5.97;3.70;;;3.20;86.70;;;;;;1891502;76;21051;-44
2022/01/03 02:05:10;;;;;;;3.50;2.87;;;3.20;86.80;;;;;;1891054;75;21084;-44
2022/01/03 02:08:11;;;;;;;5.03;3.72;;;3.20;86.80;;;;;;1891695;76;21048;-44
2022/01/03 02:10:43;;;;;;;6.28;3.40;;;3.20;86.70;;;;;;1891573;75;21098;-44
2022/01/03 02:13:14;;;;;;;6.28;4.03;;;3.20;86.60;;;;;;1891749;76;21443;-44
2022/01/03 02:15:48;;;;;;;7.53;3.90;;;3.30;86.60;;;;;;1891734;76;21465;-45
2022/01/03 02:18:16;;;;;;;6.50;3.55;;;3.20;86.50;;;;;;1891270;75;21084;-45
2022/01/03 02:20:45;;;;;;;6.10;3.67;;;3.20;86.70;;;;;;1891605;74;21032;-44
2022/01/03 02:23:16;;;;;;;4.78;3.85;;;3.30;86.70;;;;;;1891663;75;21557;-44
2022/01/03 02:25:46;;;;;;;5.20;3.70;;;3.20;86.70;;;;;;1891751;74;21169;-44
2022/01/03 02:28:20;;;;;;;5.97;3.12;;;3.30;86.90;;;;;;1891630;76;21044;-45
2022/01/03 02:30:47;;;;;;;4.12;2.98;;;3.30;87.00;;;;;;1891399;75;21095;-44
2022/01/03 02:33:16;;;;;;;4.90;3.35;;;3.30;86.80;;;;;;1891623;76;21161;-43
2022/01/03 02:35:46;;;;;;;3.83;3.42;;;3.30;86.80;;;;;;1891619;75;21094;-43
2022/01/03 02:38:18;;;;;;;6.67;3.35;;;3.30;86.90;;;;;;1891614;76;21117;-44
2022/01/03 02:40:48;;;;;;;5.17;3.17;;;3.30;87.10;;;;;;1891682;76;21060;-43
2022/01/03 02:43:17;;;;;;;6.97;3.65;;;3.30;87.10;;;;;;1891542;76;21036;-43
2022/01/03 02:45:47;;;;;;;7.62;3.83;;;3.40;87.20;;;;;;1891526;74;21087;-44
2022/01/03 02:48:16;;;;;;;10.55;3.00;;;3.40;87.00;;;;;;1891539;76;21083;-44
2022/01/03 02:50:46;;;;;;;3.98;3.05;;;3.40;86.90;;;;;;1891563;76;21031;-44
2022/01/03 02:53:17;;;;;;;8.25;3.08;;;3.40;87.00;;;;;;1891660;76;21447;-44
2022/01/03 02:55:46;;;;;;;3.72;2.35;;;3.40;87.10;;;;;;1891645;76;21201;-44
2022/01/03 02:58:15;;;;;;;7.22;3.02;;;3.40;86.80;;;;;;1891500;75;21036;-44
2022/01/03 03:00:52;;;;;;;5.30;3.72;;;3.50;87.00;;;;;;1891562;75;21106;-43
2022/01/03 03:03:23;;;;;;;5.35;3.33;;;3.40;85.00;;;;;;1889775;75;21083;-43
2022/01/03 03:05:54;;;;;;;5.87;3.50;;;3.30;86.40;;;;;;1891826;76;21052;-44
2022/01/03 03:08:23;;;;;;;5.90;3.47;;;3.20;86.80;;;;;;1891770;75;21008;-43
2022/01/03 03:10:53;;;;;;;4.20;3.35;;;3.20;87.70;;;;;;1891665;76;21071;-44
2022/01/03 03:13:23;;;;;;;3.75;3.02;;;3.20;87.30;;;;;;1891719;75;21036;-44
2022/01/03 03:15:52;;;;;;;7.50;3.08;;;3.30;88.00;;;;;;1891733;76;21036;-43
2022/01/03 03:18:22;;;;;;;3.58;2.80;;;3.30;87.40;;;;;;1891706;75;21134;-44
2022/01/03 03:20:54;;;;;;;6.10;2.75;;;3.30;87.30;;;;;;1891633;75;21008;-44
2022/01/03 03:23:23;;;;;;;5.15;2.92;;;3.30;87.40;;;;;;1891741;75;21048;-43
2022/01/03 03:25:54;;;;;;;4.58;3.08;;;3.40;87.30;;;;;;1891758;75;21098;-44
2022/01/03 03:28:25;;;;;;;4.10;3.17;;;3.40;87.30;;;;;;1891786;76;21032;-44
2022/01/03 03:30:58;;;;;;;11.40;4.85;;;3.40;87.30;;;;;;1891687;75;21318;-44
2022/01/03 03:33:34;;;;;;;6.37;3.40;;;3.40;87.30;;;;;;1890926;75;21055;-44
2022/01/03 03:36:05;;;;;;;6.20;3.72;;;3.40;87.40;;;;;;1891828;76;20996;-44
2022/01/03 03:38:35;;;;;;;6.92;3.98;;;3.40;87.30;;;;;;1891688;76;21032;-44
2022/01/03 03:41:05;;;;;;;5.17;3.35;;;3.40;87.20;;;;;;1891305;75;21063;-44
2022/01/03 03:43:36;;;;;;;4.40;2.95;;;3.40;87.20;;;;;;1891215;75;21095;-45
2022/01/03 03:46:07;;;;;;;5.22;2.90;;;3.40;87.50;;;;;;1891487;75;21142;-44
2022/01/03 03:48:38;;;;;;;4.47;3.25;;;3.40;87.50;;;;;;1891661;75;21327;-46
2022/01/03 03:51:07;;;;;;;4.67;3.00;;;3.50;87.30;;;;;;1891692;76;21059;-44
2022/01/03 03:53:37;;;;;;;6.83;3.52;;;3.40;86.30;;;;;;1891781;76;21144;-44
2022/01/03 03:56:06;;;;;;;6.35;3.40;;;3.30;87.10;;;;;;1891787;76;21004;-43
2022/01/03 03:58:36;;;;;;;7.37;3.40;;;3.30;86.80;;;;;;1891779;76;21075;-43
2022/01/03 04:01:06;;;;;;;5.12;3.12;;;3.30;87.30;;;;;;1891621;76;21060;-43
2022/01/03 04:03:35;;;;;;;7.20;3.72;;;3.30;87.40;;;;;;1891716;75;21008;-43
2022/01/03 04:06:04;;;;;;;5.97;3.20;;;3.30;87.30;;;;;;1891620;76;21082;-43
2022/01/03 04:08:34;;;;;;;9.28;3.27;;;3.30;86.70;;;;;;1891629;76;21102;-44
2022/01/03 04:11:04;;;;;;;6.12;3.33;;;3.20;86.00;;;;;;1891712;75;21525;-44
2022/01/03 04:13:34;;;;;;;5.62;3.47;;;3.10;86.30;;;;;;1891730;75;21102;-43
2022/01/03 04:16:05;;;;;;;5.20;3.35;;;3.00;86.40;;;;;;1891475;75;21058;-43
2022/01/03 04:18:34;;;;;;;5.95;3.72;;;3.00;86.40;;;;;;1884097;76;21069;-44
2022/01/03 04:21:04;;;;;;;5.75;4.20;;;2.90;86.40;;;;;;1872859;76;21036;-43
2022/01/03 04:23:33;;;;;;;6.75;4.42;;;2.90;87.30;;;;;;1872851;76;21030;-44
2022/01/03 04:26:04;;;;;;;9.93;3.95;;;3.00;87.40;;;;;;1873074;76;21030;-43
2022/01/03 04:28:34;;;;;;;3.25;2.92;;;3.00;87.60;;;;;;1873012;77;21456;-43
2022/01/03 04:31:03;;;;;;;5.25;3.58;;;3.10;87.70;;;;;;1872875;77;21037;-44
2022/01/03 04:33:33;;;;;;;9.25;3.60;;;3.20;87.70;;;;;;1872933;76;21034;-43
2022/01/03 04:36:03;;;;;;;5.75;4.15;;;3.20;87.40;;;;;;1872954;75;21057;-45
2022/01/03 04:38:33;;;;;;;4.92;3.42;;;3.20;87.50;;;;;;1872841;76;21099;-44
2022/01/03 04:41:02;;;;;;;4.62;3.20;;;3.30;87.40;;;;;;1872898;76;21097;-46
2022/01/03 04:43:33;;;;;;;8.13;5.65;;;3.30;87.30;;;;;;1872849;76;21061;-44
2022/01/03 04:46:03;;;;;;;7.53;5.55;;;3.30;87.40;;;;;;1873008;77;21041;-44
2022/01/03 04:48:32;;;;;;;10.78;3.80;;;3.30;87.50;;;;;;1872838;76;21033;-44
2022/01/03 04:51:03;;;;;;;4.47;3.55;;;3.30;87.20;;;;;;1872917;76;21105;-45
2022/01/03 04:53:37;;;;;;;3.70;3.37;;;3.30;87.70;;;;;;1873010;76;21061;-46
2022/01/03 04:56:05;;;;;;;3.50;2.60;;;3.30;87.20;;;;;;1872854;75;21111;-46
2022/01/03 04:58:34;;;;;;;9.90;2.98;;;3.30;87.20;;;;;;1872763;75;21092;-46
2022/01/03 05:01:04;;;;;;;30.95;15.32;;;3.40;87.40;;;;;;1872663;75;21029;-44
2022/01/03 05:03:34;;;;;;;2.92;2.52;;;3.40;87.50;;;;;;1872932;75;21013;-45
2022/01/03 05:06:04;;;;;;;7.12;3.92;;;3.40;87.40;;;;;;1872859;76;21013;-43
2022/01/03 05:08:34;;;;;;;25.95;13.98;;;3.40;87.50;;;;;;1872772;75;21134;-43
2022/01/03 05:11:04;;;;;;;13.72;7.92;;;3.50;86.60;;;;;;1872802;76;21009;-44
2022/01/03 05:13:33;;;;;;;16.17;10.10;;;3.40;86.60;;;;;;1872781;75;21034;-43
2022/01/03 05:16:04;;;;;;;6.30;4.15;;;3.40;87.10;;;;;;1872863;75;21053;-44
2022/01/03 05:18:34;;;;;;;4.87;2.95;;;3.40;87.20;;;;;;1872835;75;21069;-44
2022/01/03 05:21:04;;;;;;;6.67;3.27;;;3.40;87.30;;;;;;1872757;76;21042;-43
2022/01/03 05:23:34;;;;;;;3.90;3.15;;;3.40;87.40;;;;;;1872730;76;21038;-44
2022/01/03 05:26:05;;;;;;;5.42;3.85;;;3.40;87.40;;;;;;1872760;75;21091;-44
2022/01/03 05:28:34;;;;;;;8.38;4.83;;;3.40;87.50;;;;;;1872847;75;21115;-44
2022/01/03 05:31:04;;;;;;;4.72;3.40;;;3.50;87.70;;;;;;1872902;75;21006;-44
2022/01/03 05:33:34;;;;;;;3.33;2.95;;;3.50;87.20;;;;;;1872770;77;21006;-43
2022/01/03 05:36:04;;;;;;;14.30;7.45;;;3.50;86.10;;;;;;1872830;77;21006;-44
2022/01/03 05:38:33;;;;;;;17.27;9.05;;;3.50;87.00;;;;;;1872701;75;21049;-44
2022/01/03 05:41:03;;;;;;;16.87;9.58;;;3.50;87.30;;;;;;1872758;77;21107;-44
2022/01/03 05:43:33;;;;;;;10.55;6.05;;;3.50;87.10;;;;;;1872810;76;21033;-43
2022/01/03 05:46:02;;;;;;;8.85;4.42;;;3.50;87.10;;;;;;1872876;75;21033;-44
2022/01/03 05:48:32;;;;;;;6.45;3.98;;;3.50;87.30;;;;;;1872795;76;21564;-44
2022/01/03 05:51:02;;;;;;;6.05;3.90;;;3.50;86.50;;;;;;1872719;75;21066;-43
2022/01/03 05:53:31;;;;;;;9.15;5.85;;;3.50;87.20;;;;;;1872683;75;21103;-44
2022/01/03 05:56:01;;;;;;;9.13;5.95;;;3.50;87.10;;;;;;1872748;76;21030;-43
2022/01/03 05:58:31;;;;;;;8.38;5.05;;;3.50;86.70;;;;;;1872733;76;21009;-45
2022/01/03 06:01:02;;;;;;;7.40;4.58;;;3.60;87.00;;;;;;1872707;76;21038;-44
2022/01/03 06:03:38;;;;;;;9.25;5.97;;;3.50;86.20;;;;;;1872662;75;21038;-43
2022/01/03 06:08:41;;;;;;;7.20;5.15;;;3.50;86.60;;;;;;1872747;76;21129;-44
2022/01/03 06:11:10;;;;;;;8.38;4.87;;;3.50;86.50;;;;;;1872767;75;21006;-43
2022/01/03 06:13:40;;;;;;;6.33;4.85;;;3.50;86.30;;;;;;1872802;75;21025;-44
2022/01/03 06:16:09;;;;;;;8.85;5.47;;;3.50;87.10;;;;;;1872781;76;21120;-44
2022/01/03 06:18:40;;;;;;;6.67;4.65;;;3.50;87.20;;;;;;1872690;76;21565;-44
2022/01/03 06:21:11;;;;;;;5.03;4.15;;;3.60;86.90;;;;;;1872774;75;21025;-44
2022/01/03 06:23:42;;;;;;;7.03;4.20;;;3.60;87.40;;;;;;1872151;77;21085;-45
2022/01/03 06:26:13;;;;;;;5.50;4.35;;;3.60;86.30;;;;;;1872743;77;21432;-44
2022/01/03 06:28:52;;;;;;;5.92;3.83;;;3.60;85.80;;;;;;1872435;76;21077;-44
2022/01/03 06:31:23;;;;;;;4.28;3.52;;;3.60;84.80;;;;;;1872715;75;21046;-44
2022/01/03 06:33:54;;;;;;;5.83;3.55;;;3.50;85.50;;;;;;1872757;77;21061;-44
2022/01/03 06:36:24;;;;;;;5.97;3.00;;;3.40;86.00;;;;;;1872752;75;21034;-44
2022/01/03 06:38:54;;;;;;;5.40;3.85;;;3.40;85.60;;;;;;1872684;76;21029;-44
2022/01/03 06:41:24;;;;;;;4.08;3.10;;;3.40;86.40;;;;;;1872748;77;21046;-45
2022/01/03 06:43:54;;;;;;;5.50;3.30;;;3.40;85.90;;;;;;1872873;77;21025;-45
2022/01/03 06:46:24;;;;;;;3.92;2.87;;;3.30;86.10;;;;;;1872761;76;21029;-45
2022/01/03 06:48:53;;;;;;;4.42;2.75;;;3.40;85.90;;;;;;1872785;76;21050;-45
2022/01/03 06:51:23;;;;;;;2.85;2.55;;;3.40;86.40;;;;;;1872694;76;21033;-45
2022/01/03 06:53:54;;;;;;;4.22;3.20;;;3.40;86.60;;;;;;1873024;75;21033;-46
2022/01/03 06:56:23;;;;;;;3.50;3.00;;;3.50;86.40;;;;;;1872863;76;21010;-44
2022/01/03 06:58:52;;;;;;;4.37;3.47;;;3.60;85.90;;;;;;1872696;76;21010;-45
2022/01/03 07:01:22;;;;;;;3.30;2.70;;;3.60;86.00;;;;;;1872716;76;21045;-45
2022/01/03 07:03:51;;;;;;;3.95;3.52;;;3.70;86.60;;;;;;1872883;75;21033;-44
2022/01/03 07:06:21;;;;;;;4.10;3.70;;;3.80;86.10;;;;;;1872795;75;21104;-45
2022/01/03 07:08:50;;;;;;;6.12;3.42;;;3.80;86.10;;;;;;1873024;75;21033;-46
2022/01/03 07:11:20;;;;;;;3.70;3.10;;;3.80;84.90;;;;;;1872727;75;21099;-45
2022/01/03 07:13:53;;;;;;;5.28;3.42;;;3.90;85.10;;;;;;1872727;75;21104;-45
2022/01/03 07:19:08;;;;;;;3.98;3.33;;;3.90;85.50;;;;;;1872871;75;21018;-45
2022/01/03 07:21:37;;;;;;;5.40;3.85;;;3.90;85.30;;;;;;1872845;75;21057;-45
2022/01/03 07:24:07;;;;;;;4.35;3.30;;;3.90;85.50;;;;;;1872761;75;21095;-46
2022/01/03 07:26:36;;;;;;;4.90;4.30;;;3.90;84.70;;;;;;1872870;75;21065;-45
2022/01/03 07:29:06;;;;;;;5.03;3.90;;;3.90;84.00;;;;;;1872803;75;21025;-46
2022/01/03 07:31:35;;;;;;;6.53;3.50;;;3.90;85.30;;;;;;1872782;75;21076;-45
2022/01/03 07:34:05;;;;;;;7.67;4.20;;;3.90;84.40;;;;;;1872696;75;21135;-45
2022/01/03 07:36:34;;;;;;;5.37;4.30;;;3.90;85.00;;;;;;1872650;75;21087;-45
2022/01/03 07:39:05;;;;;;;2.98;2.67;;;3.90;85.00;;;;;;1872684;75;21037;-45
2022/01/03 07:41:34;;;;;;;4.97;2.72;;;3.90;84.80;;;;;;1872617;75;21037;-45
2022/01/03 07:44:03;;;;;;;6.53;5.10;;;4.00;84.80;;;;;;1872921;76;21010;-44
2022/01/03 07:46:33;;;;;;;3.58;2.52;;;4.00;84.40;;;;;;1872863;77;21117;-45
2022/01/03 07:49:02;;;;;;;4.92;2.75;;;4.10;83.70;;;;;;1872840;75;21171;-45
2022/01/03 07:51:31;;;;;;;2.37;2.17;;;4.10;84.00;;;;;;1872946;76;21030;-44
2022/01/03 07:54:01;;;;;;;4.58;2.45;;;4.10;83.90;;;;;;1872931;77;21099;-45
2022/01/03 07:56:30;;;;;;;3.45;2.30;;;4.20;83.50;;;;;;1872873;76;21034;-45
2022/01/03 07:58:59;;;;;;;2.55;2.02;;;4.20;82.90;;;;;;1872799;77;21162;-46
2022/01/03 08:01:29;;;;;;;5.00;2.83;;;4.30;82.80;;;;;;1872908;75;21142;-43
2022/01/03 08:03:58;;;;;;;3.33;1.70;;;4.30;82.90;;;;;;1872953;75;21111;-44
2022/01/03 08:06:29;;;;;;;2.42;2.20;;;4.30;81.80;;;;;;1872926;76;21025;-44
2022/01/03 08:08:58;;;;;;;3.05;1.80;;;4.40;82.90;;;;;;1872833;76;21570;-45
2022/01/03 08:11:28;;;;;;;4.12;2.55;;;4.40;82.30;;;;;;1872925;75;21025;-44
2022/01/03 08:13:57;;;;;;;6.55;2.92;;;4.40;82.80;;;;;;1872810;75;21037;-44
2022/01/03 08:16:26;;;;;;;3.20;2.55;;;4.40;82.10;;;;;;1872802;77;21029;-45
2022/01/03 08:18:56;;;;;;;2.80;2.52;;;4.50;81.60;;;;;;1872802;77;21029;-45
2022/01/03 08:21:26;;;;;;;2.95;1.98;;;4.60;82.10;;;;;;1872715;75;21123;-46
2022/01/03 08:23:55;;;;;;;3.62;1.82;;;4.60;81.90;;;;;;1872999;75;21037;-45
2022/01/03 08:26:24;;;;;;;5.08;2.92;;;4.70;80.90;;;;;;1872884;76;21046;-44
2022/01/03 08:28:54;;;;;;;8.95;2.45;;;4.70;81.60;;;;;;1872754;76;21033;-44
2022/01/03 08:31:23;;;;;;;2.17;1.80;;;4.70;81.50;;;;;;1872742;77;21061;-44
2022/01/03 08:33:53;;;;;;;4.60;2.67;;;4.80;81.90;;;;;;1872822;75;21084;-44
2022/01/03 08:36:23;;;;;;;2.92;2.35;;;4.90;82.10;;;;;;1872729;75;21041;-44
2022/01/03 08:38:52;;;;;;;3.47;2.20;;;4.90;81.70;;;;;;1872786;75;21014;-44
2022/01/03 08:41:22;;;;;;;2.22;1.95;;;4.90;81.30;;;;;;1872756;76;21108;-45
2022/01/03 08:43:52;;;;;;;3.17;2.00;;;5.00;81.70;;;;;;1872777;76;21041;-43
2022/01/03 08:46:23;;;;;;;2.85;2.20;;;5.00;80.80;;;;;;1872751;75;21128;-45
2022/01/03 08:48:54;;;;;;;1.90;1.80;;;5.10;80.30;;;;;;1872810;75;21053;-45
2022/01/03 08:51:25;;;;;;;2.65;2.27;;;5.10;80.50;;;;;;1873059;76;21029;-47
2022/01/03 08:53:54;;;;;;;1.42;1.17;;;5.10;79.90;;;;;;1872902;76;21545;-44
2022/01/03 08:56:24;;;;;;;1.77;1.67;;;5.20;80.00;;;;;;1872888;75;21029;-47
2022/01/03 08:58:54;;;;;;;3.02;1.85;;;5.20;79.70;;;;;;1872997;77;21045;-44
2022/01/03 09:01:24;;;;;;;4.65;1.80;;;5.20;79.00;;;;;;1872856;75;21099;-45
2022/01/03 09:03:53;;;;;;;2.85;2.37;;;5.20;80.00;;;;;;1872835;77;21034;-44
2022/01/03 09:06:22;;;;;;;2.60;1.85;;;5.30;80.20;;;;;;1872812;77;21134;-44
2022/01/03 09:08:52;;;;;;;2.33;1.90;;;5.30;77.80;;;;;;1872750;75;21013;-43
2022/01/03 09:11:21;;;;;;;2.20;1.45;;;5.30;77.70;;;;;;1873118;77;21096;-45
2022/01/03 09:13:50;;;;;;;2.17;1.85;;;5.30;77.60;;;;;;1872802;75;21111;-44
2022/01/03 09:16:20;;;;;;;6.35;1.72;;;5.30;78.70;;;;;;1872801;77;21053;-44
2022/01/03 09:18:49;;;;;;;1.10;0.90;;;5.30;78.10;;;;;;1872847;77;21052;-45
2022/01/03 09:21:19;;;;;;;2.83;2.02;;;5.30;77.80;;;;;;1872829;75;21103;-45
2022/01/03 09:24:05;;;;;;;1.17;1.07;;;5.40;78.20;;;;;;1872890;75;21045;-45
2022/01/03 09:29:07;;;;;;;2.35;1.55;;;5.40;77.70;;;;;;1872949;75;21051;-43
2022/01/03 09:31:39;;;;;;;2.25;2.05;;;5.40;77.20;;;;;;1872953;76;21029;-46
2022/01/03 09:34:08;;;;;;;3.45;2.47;;;5.40;77.60;;;;;;1872755;75;21026;-44
2022/01/03 09:36:37;;;;;;;2.65;1.95;;;5.50;78.00;;;;;;1872768;77;21041;-44
2022/01/03 09:39:07;;;;;;;8.93;5.50;;;5.50;78.10;;;;;;1872725;77;21037;-43
2022/01/03 09:41:39;;;;;;;2.17;1.92;;;5.50;77.70;;;;;;1872706;75;21041;-45
2022/01/03 09:44:12;;;;;;;4.40;1.72;;;5.60;78.40;;;;;;1872969;75;21033;-44
2022/01/03 09:46:43;;;;;;;1.70;1.60;;;5.60;78.00;;;;;;1873075;75;21096;-44
2022/01/03 09:49:14;;;;;;;2.83;1.82;;;5.60;78.60;;;;;;1873060;75;21025;-45
2022/01/03 09:51:44;;;;;;;2.83;1.80;;;5.60;78.20;;;;;;1873017;76;21069;-45
2022/01/03 09:54:21;;;;;;;2.62;1.90;;;5.70;77.90;;;;;;1872946;75;21009;-44
2022/01/03 09:56:46;;;;;;;4.65;1.75;;;5.70;78.70;;;;;;1871913;77;21053;-43
2022/01/03 09:59:15;;;;;;;2.85;1.98;;;5.70;78.40;;;;;;1872797;75;21100;-45
2022/01/03 10:01:45;;;;;;;3.10;1.80;;;5.80;78.70;;;;;;1872788;75;21009;-45
2022/01/03 10:04:15;;;;;;;1.10;1.00;;;5.80;78.90;;;;;;1872930;75;21033;-44
2022/01/03 10:06:45;;;;;;;2.40;1.70;;;5.80;77.90;;;;;;1872887;76;21033;-44
2022/01/03 10:09:15;;;;;;;2.60;1.80;;;5.90;78.50;;;;;;1872901;76;21484;-44
2022/01/03 10:11:44;;;;;;;2.87;1.62;;;5.90;78.60;;;;;;1872753;75;21072;-44
2022/01/03 10:14:15;;;;;;;3.15;1.70;;;5.90;78.60;;;;;;1872864;75;21033;-46
2022/01/03 10:16:46;;;;;;;2.20;1.95;;;6.00;77.70;;;;;;1872881;75;21131;-44
2022/01/03 10:19:16;;;;;;;4.65;2.30;;;6.10;79.10;;;;;;1872876;77;21107;-44
2022/01/03 10:21:48;;;;;;;2.50;2.30;;;6.10;78.60;;;;;;1872636;75;21057;-44
2022/01/03 10:24:19;;;;;;;3.65;1.60;;;6.10;78.60;;;;;;1872796;75;21205;-44
2022/01/03 10:26:53;;;;;;;7.92;4.37;;;6.20;78.40;;;;;;1872875;77;21025;-44
2022/01/03 10:29:24;;;;;;;2.27;1.87;;;6.10;78.90;;;;;;1872904;75;21025;-45
2022/01/03 10:31:56;;;;;;;1.90;1.75;;;6.10;78.30;;;;;;1872657;77;21022;-47
2022/01/03 10:34:26;;;;;;;2.60;1.87;;;6.20;77.30;;;;;;1872602;77;21032;-44
2022/01/03 10:36:57;;;;;;;1.85;1.30;;;6.20;77.80;;;;;;1872763;75;21111;-47
2022/01/03 10:39:28;;;;;;;1.60;1.50;;;6.20;77.30;;;;;;1872786;75;21025;-44
2022/01/03 10:42:18;;;;;;;3.20;1.62;;;6.20;76.40;;;;;;1872695;75;21073;-47
2022/01/03 10:44:49;;;;;;;1.92;1.55;;;6.20;77.00;;;;;;1872691;76;21065;-45
2022/01/03 10:47:32;;;;;;;2.83;1.95;;;6.30;77.10;;;;;;1872761;77;21030;-44
2022/01/03 10:50:19;;;;;;;2.50;1.60;;;6.20;77.20;;;;;;1872783;77;21066;-46
2022/01/03 10:52:49;;;;;;;3.00;1.70;;;6.30;77.50;;;;;;1872762;75;21159;-44
2022/01/03 10:55:33;;;;;;;1.12;1.05;;;6.30;77.40;;;;;;1872860;75;21029;-47
2022/01/03 10:58:03;;;;;;;1.37;1.20;;;6.30;76.90;;;;;;1872212;75;21037;-46
2022/01/03 11:00:36;;;;;;;1.02;0.85;;;6.30;76.80;;;;;;1872945;77;21029;-45
2022/01/03 11:03:24;;;;;;;4.65;1.70;;;6.40;76.80;;;;;;1872651;77;21002;-45
2022/01/03 11:05:59;;;;;;;1.42;1.27;;;6.40;76.20;;;;;;1872291;75;21081;-44
2022/01/03 11:11:17;;;;;;;3.12;1.87;;;6.40;75.90;;;;;;1872866;77;21084;-44
2022/01/03 11:13:48;;;;;;;1.40;1.17;;;6.40;76.20;;;;;;1870268;76;21108;-45
2022/01/03 11:16:18;;;;;;;4.20;2.15;;;6.40;76.20;;;;;;1872758;75;21045;-45
2022/01/03 11:18:49;;;;;;;3.05;1.30;;;6.40;76.20;;;;;;1872889;76;21127;-48
2022/01/03 11:21:21;;;;;;;2.33;1.20;;;6.40;75.90;;;;;;1872758;75;21005;-44
2022/01/03 11:24:09;;;;;;;0.95;0.82;;;6.50;76.10;;;;;;1872795;75;21121;-44
2022/01/03 11:26:50;;;;;;;1.65;1.20;;;6.50;76.40;;;;;;1872967;75;21095;-44
2022/01/03 11:29:20;;;;;;;1.40;1.30;;;6.50;76.60;;;;;;1872913;75;21046;-45
2022/01/03 11:31:51;;;;;;;1.25;1.15;;;6.50;76.50;;;;;;1872862;77;21010;-45
2022/01/03 11:34:25;;;;;;;1.70;1.45;;;6.50;76.80;;;;;;1872971;77;21069;-44
2022/01/03 11:36:56;;;;;;;1.07;0.98;;;6.60;76.70;;;;;;1872946;76;21049;-44
2022/01/03 11:39:28;;;;;;;2.02;1.20;;;6.60;77.10;;;;;;1872968;76;21108;-45
2022/01/03 11:41:57;;;;;;;2.25;1.00;;;6.60;77.10;;;;;;1872831;75;21538;-44
2022/01/03 11:44:27;;;;;;;1.40;1.30;;;6.60;77.30;;;;;;1872743;76;21123;-44
2022/01/03 11:46:56;;;;;;;4.30;1.50;;;6.60;77.20;;;;;;1872779;77;21009;-45
2022/01/03 11:49:26;;;;;;;4.50;1.62;;;6.70;77.60;;;;;;1872825;75;21009;-45
2022/01/03 11:51:58;;;;;;;1.15;0.90;;;6.70;77.90;;;;;;1872933;76;21030;-45
2022/01/03 11:54:27;;;;;;;1.95;0.98;;;6.70;77.50;;;;;;1872865;75;21050;-44
2022/01/03 11:57:15;;;;;;;1.72;1.32;;;6.70;77.70;;;;;;1872873;76;21057;-44
2022/01/03 12:05:23;;;;;;;3.50;1.60;;;6.70;77.70;;;;;;1872868;75;21044;-45
2022/01/03 12:07:57;;;;;;;2.20;1.35;;;6.70;78.00;;;;;;1872751;76;21049;-46
2022/01/03 12:10:27;;;;;;;2.83;1.42;;;6.70;78.00;;;;;;1872901;75;21030;-45
2022/01/03 12:13:00;;;;;;;2.87;1.30;;;6.70;78.10;;;;;;1872849;77;21107;-45
2022/01/03 12:15:32;;;;;;;1.77;1.17;;;6.70;77.70;;;;;;1872843;76;21061;-44
2022/01/03 12:18:01;;;;;;;2.85;1.45;;;6.70;77.40;;;;;;1872925;77;21099;-44
2022/01/03 12:20:42;;;;;;;0.90;0.80;;;6.70;77.80;;;;;;1872875;75;21088;-44
2022/01/03 12:23:13;;;;;;;1.67;1.40;;;6.70;77.20;;;;;;1872766;76;21073;-44
2022/01/03 12:25:46;;;;;;;5.28;1.67;;;6.70;76.90;;;;;;1869561;75;21088;-44
2022/01/03 12:28:15;;;;;;;1.77;1.20;;;6.80;77.20;;;;;;1872761;76;21041;-44
2022/01/03 12:30:57;;;;;;;1.87;1.25;;;6.80;77.00;;;;;;1873087;75;21096;-46
2022/01/03 12:33:27;;;;;;;6.15;1.67;;;6.80;77.40;;;;;;1872419;75;21029;-45
2022/01/03 12:36:15;;;;;;;1.77;1.52;;;6.70;77.50;;;;;;1872837;76;21037;-47
2022/01/03 12:38:52;;;;;;;3.92;1.60;;;6.70;77.80;;;;;;1872877;75;21092;-43
2022/01/03 12:41:42;;;;;;;1.47;1.15;;;6.70;77.60;;;;;;1869490;76;21010;-44
2022/01/03 12:44:12;;;;;;;1.80;1.37;;;6.80;77.70;;;;;;1872847;76;21140;-45
2022/01/03 12:46:41;;;;;;;1.55;1.20;;;6.80;77.70;;;;;;1872824;75;21531;-44
2022/01/03 12:49:26;;;;;;;2.05;1.45;;;6.70;77.50;;;;;;1872826;75;21150;-44
2022/01/03 12:51:57;;;;;;;1.50;1.20;;;6.80;77.80;;;;;;1872222;75;21006;-46
2022/01/03 12:54:43;;;;;;;1.55;1.10;;;6.80;77.90;;;;;;1867499;76;21058;-48
2022/01/03 12:57:14;;;;;;;2.40;1.40;;;6.80;78.20;;;;;;1872801;76;21042;-47
2022/01/03 12:59:44;;;;;;;4.37;1.90;;;6.80;78.20;;;;;;1872969;75;21037;-44
2022/01/03 13:02:28;;;;;;;5.20;1.98;;;6.70;78.40;;;;;;1872803;77;21037;-45
2022/01/03 13:04:57;;;;;;;5.03;1.95;;;6.70;78.70;;;;;;1872182;76;21057;-44
2022/01/03 13:07:27;;;;;;;1.65;1.30;;;6.70;79.50;;;;;;1872727;76;21005;-45
2022/01/03 13:09:56;;;;;;;3.72;2.08;;;6.70;79.30;;;;;;1872689;76;21037;-45
2022/01/03 13:12:26;;;;;;;3.70;1.47;;;6.70;79.60;;;;;;1872616;75;21030;-45
2022/01/03 13:15:03;;;;;;;5.95;3.65;;;6.60;79.80;;;;;;1872966;75;21105;-45
2022/01/03 13:17:33;;;;;;;2.52;2.00;;;6.60;80.00;;;;;;1872782;77;21422;-48
2022/01/03 13:20:02;;;;;;;3.50;1.40;;;6.60;80.30;;;;;;1872734;75;21041;-46
2022/01/03 13:22:32;;;;;;;1.60;1.50;;;6.60;80.50;;;;;;1872687;75;21080;-47
2022/01/03 13:25:02;;;;;;;2.47;1.47;;;6.60;80.30;;;;;;1872758;75;21076;-46
2022/01/03 13:27:31;;;;;;;5.62;1.70;;;6.60;80.40;;;;;;1872800;75;21122;-45
2022/01/03 13:30:06;;;;;;;3.45;1.77;;;6.60;80.50;;;;;;1872796;75;21033;-45
2022/01/03 13:32:34;;;;;;;1.98;1.32;;;6.50;80.40;;;;;;1872255;76;21101;-47
2022/01/03 13:35:05;;;;;;;3.35;1.70;;;6.60;80.40;;;;;;1872895;77;21049;-44
2022/01/03 13:37:34;;;;;;;1.30;1.07;;;6.60;80.40;;;;;;1872796;75;21103;-46
2022/01/03 13:40:04;;;;;;;1.12;0.93;;;6.60;80.20;;;;;;1872907;76;21037;-45